Aeroporto :
LOGIN :

Iscrizione | Disclaimer

   EN    FR    IT 

 










Sommario :    VFR   VFR Marginale   IFR   IFR Intensivo   IFR Molto Intensivo
Visibilità : 
Base nubi : 
>= 8 km
>= 3000ft
5 / 8 km
1000 / 3000 ft
1500m / 5 km
500 / 1000 ft
800 / 1500m
200 / 500 ft
< 800m
< 200 ft
Simboli :   Temporali  Nebbia  Neve Forte  Precipitazioni Forti  Vento > 20 kt
SIGMETs :   Varie  Temporali  Ghiacco  Turbolenza  Onda orograficha  Ceneri Vulcaniche






- Altitudine del aeroporto : 160 ft
- Codice IATA : FMO


EDDG - Münster Osnabrück Int.

ULTIMO METAR :
  • 121820Z 15006KT 9999 FEW033 04/02 Q1000 NOSIG

METARs OBSOLETI :
  • 121750Z 14006KT 9999 FEW030 04/02 Q1001 NOSIG
  • 121720Z 13005KT 090V160 9999 FEW030 04/02 Q1001 NOSIG
  • 121650Z 16004KT 130V190 9999 SCT030 05/02 Q1001 NOSIG
  • 121620Z 19005KT 9999 BKN022 05/03 Q1000 NOSIG
  • 121550Z 19006KT 160V220 9999 FEW015 BKN019 05/02 Q1000 NOSIG

TAF TAF EDDG
Valido dal 12 a 18 ore il 13 a 18 ore UTC


121700Z 1218/1318 17004KT 9999 BKN030
BECMG 1300/1303 19010KT
TEMPO 1306/1310 BKN010



MetMap, La meteo Aeronautica in un colpo d'occhio ! - Copyright ORBIFLY Dicembre 2007 - Disclaimer

ORBIFLY MET'MAP TEAM :

Programmazione e sviluppo : Alexandra Zaïnal
Concezione e sviluppo : Baudouin d'Aumeries
Co-Programmazione e sviluppo : Marc-Olivier Méhu
Supporto tecnico e logistico : Manuel Goepfert
Aiuto per la traduzione : Arnaldo La Scala

Contatto : metmap@orbifly.com




FONTI E CREDITI :

   NOAA